Startpagina
METAR-TAF:

Vliegvelden :

Oostende, België

Internationale Luchthaven Oostende-Brugge

breedte: 51-12N, lengte: 002-52E, hoogte: 4 m

Actueel weer

Dit bericht is 19 minuten geleden gemaakt, om 02:50 UTC
Wind 7 kt uit het zuidzuidwesten
Temperatuur 12°C
Vochtigheid 88%
Druk 1013 hPa
Zicht 10 km of meer
Weinig wolken op 2100 ft

METAR: EBOS 300250Z 20007KT 9999 FEW021 12/10 Q1013 NOSIG

Tijdstip: 05:09 (03:09 UTC)

Verwachting

Dit bericht is 4 uur en het 9 minuten geleden gemaakt, om 23:00 UTC
Verwachting geldig van 30 om 00 UTC tot 01 om 06 UTC
Wind 10 kt uit het westzuidwesten
Zicht 10 km of meer
Verspreide wolken op 2500 ft
Wijzigt naar
van 30 om 22 UTC tot 30 om 24 UTC
Wind 8 kt uit het zuiden
Kans 30% :
Tijdelijke
van 01 om 04 UTC tot 01 om 06 UTC
Zicht: 2500 m
nevel

TAF: EBOS 292300Z 3000/0106 25010KT 9999 SCT025 BECMG 3022/3024 18008KT PROB30 TEMPO 0104/0106 2500 BR

METAR-TAF

Waarnemingen en weersverwachtingen van meer dan 4000 vliegvelden (METAR en TAF).

De beschikbare stations zijn de gele en rode punten op de kaart.

Ga met uw muis naar het station om de naam te zien.

Klik dan om waarnemingen en weersverwachtingen te zien.

kaart wijzigen: klik op de groene knoppen met een zwart kruis om in te zoomen, op de groene knop met een streepje om uit te zoomen of op de groene pijlen voor aangrenzende kaarten.


METAR-TAF: